sensor_id;sensor_type;location;lat;lon;timestamp;pressure;altitude;pressure_sealevel;temperature;humidity
19827;BME280;10074;52.018;4.726;2023-04-29T00:04:26;46249.34;;;-144.79;100.00
19827;BME280;10074;52.018;4.726;2023-04-29T00:09:26;46245.31;;;-144.79;100.00
19827;BME280;10074;52.018;4.726;2023-04-29T00:14:27;46247.31;;;-144.79;100.00
19827;BME280;10074;52.018;4.726;2023-04-29T00:19:27;46237.31;;;-144.79;100.00
19827;BME280;10074;52.018;4.726;2023-04-29T00:24:28;46241.31;;;-144.79;100.00
19827;BME280;10074;52.018;4.726;2023-04-29T00:29:28;46235.28;;;-144.79;100.00
19827;BME280;10074;52.018;4.726;2023-04-29T00:34:29;46245.31;;;-144.79;100.00
19827;BME280;10074;52.018;4.726;2023-04-29T00:39:29;46243.31;;;-144.79;100.00
19827;BME280;10074;52.018;4.726;2023-04-29T00:44:29;46239.31;;;-144.79;100.00
19827;BME280;10074;52.018;4.726;2023-04-29T00:49:30;46237.31;;;-144.79;100.00
19827;BME280;10074;52.018;4.726;2023-04-29T00:54:30;46243.31;;;-144.79;100.00
19827;BME280;10074;52.018;4.726;2023-04-29T00:59:30;46235.28;;;-144.79;100.00
19827;BME280;10074;52.018;4.726;2023-04-29T01:04:32;46233.28;;;-144.79;100.00
19827;BME280;10074;52.018;4.726;2023-04-29T01:09:49;46231.28;;;-144.79;100.00
19827;BME280;10074;52.018;4.726;2023-04-29T01:15:07;46239.31;;;-144.79;100.00
19827;BME280;10074;52.018;4.726;2023-04-29T01:20:09;46243.31;;;-144.79;100.00
19827;BME280;10074;52.018;4.726;2023-04-29T01:25:09;46241.31;;;-144.79;100.00
19827;BME280;10074;52.018;4.726;2023-04-29T01:41:17;46237.31;;;-144.79;100.00
19827;BME280;10074;52.018;4.726;2023-04-29T01:46:17;46235.28;;;-144.79;100.00
19827;BME280;10074;52.018;4.726;2023-04-29T01:51:18;46239.31;;;-144.79;100.00
19827;BME280;10074;52.018;4.726;2023-04-29T01:56:19;46235.28;;;-144.79;100.00
19827;BME280;10074;52.018;4.726;2023-04-29T02:01:19;46229.28;;;-144.79;100.00
19827;BME280;10074;52.018;4.726;2023-04-29T02:06:19;46235.28;;;-144.79;100.00
19827;BME280;10074;52.018;4.726;2023-04-29T02:11:19;46243.31;;;-144.79;100.00
19827;BME280;10074;52.018;4.726;2023-04-29T02:16:20;46245.31;;;-144.79;100.00
19827;BME280;10074;52.018;4.726;2023-04-29T02:21:20;46235.28;;;-144.79;100.00
19827;BME280;10074;52.018;4.726;2023-04-29T02:26:21;46229.28;;;-144.79;100.00
19827;BME280;10074;52.018;4.726;2023-04-29T02:31:21;46235.28;;;-144.79;100.00
19827;BME280;10074;52.018;4.726;2023-04-29T02:36:21;46239.31;;;-144.79;100.00
19827;BME280;10074;52.018;4.726;2023-04-29T02:41:22;46241.31;;;-144.79;100.00
19827;BME280;10074;52.018;4.726;2023-04-29T02:46:22;46229.28;;;-144.79;100.00
19827;BME280;10074;52.018;4.726;2023-04-29T02:51:22;46233.28;;;-144.79;100.00
19827;BME280;10074;52.018;4.726;2023-04-29T02:56:23;46229.28;;;-144.79;100.00
19827;BME280;10074;52.018;4.726;2023-04-29T03:01:23;46241.31;;;-144.79;100.00
19827;BME280;10074;52.018;4.726;2023-04-29T03:06:23;46235.28;;;-144.79;100.00
19827;BME280;10074;52.018;4.726;2023-04-29T03:11:23;46229.28;;;-144.79;100.00
19827;BME280;10074;52.018;4.726;2023-04-29T03:16:24;46235.28;;;-144.79;100.00
19827;BME280;10074;52.018;4.726;2023-04-29T03:21:24;46237.31;;;-144.79;100.00
19827;BME280;10074;52.018;4.726;2023-04-29T03:26:26;46225.28;;;-144.79;100.00
19827;BME280;10074;52.018;4.726;2023-04-29T03:31:26;46235.28;;;-144.79;100.00
19827;BME280;10074;52.018;4.726;2023-04-29T03:36:27;46235.28;;;-144.79;100.00
19827;BME280;10074;52.018;4.726;2023-04-29T03:41:27;46243.31;;;-144.79;100.00
19827;BME280;10074;52.018;4.726;2023-04-29T03:46:28;46231.28;;;-144.79;100.00
19827;BME280;10074;52.018;4.726;2023-04-29T03:51:28;46237.31;;;-144.79;100.00
19827;BME280;10074;52.018;4.726;2023-04-29T03:56:29;46239.31;;;-144.79;100.00
19827;BME280;10074;52.018;4.726;2023-04-29T04:01:29;46237.31;;;-144.79;100.00
19827;BME280;10074;52.018;4.726;2023-04-29T04:06:29;46231.28;;;-144.79;100.00
19827;BME280;10074;52.018;4.726;2023-04-29T04:11:30;46231.28;;;-144.79;100.00
19827;BME280;10074;52.018;4.726;2023-04-29T04:16:31;46239.31;;;-144.79;100.00
19827;BME280;10074;52.018;4.726;2023-04-29T04:21:31;46225.28;;;-144.79;100.00
19827;BME280;10074;52.018;4.726;2023-04-29T04:26:31;46231.28;;;-144.79;100.00
19827;BME280;10074;52.018;4.726;2023-04-29T04:31:32;46241.31;;;-144.79;100.00
19827;BME280;10074;52.018;4.726;2023-04-29T04:36:33;46229.28;;;-144.79;100.00
19827;BME280;10074;52.018;4.726;2023-04-29T04:41:33;46249.34;;;-144.79;100.00
19827;BME280;10074;52.018;4.726;2023-04-29T04:46:34;46239.31;;;-144.79;100.00
19827;BME280;10074;52.018;4.726;2023-04-29T04:51:34;46227.28;;;-144.79;100.00
19827;BME280;10074;52.018;4.726;2023-04-29T04:56:34;46223.25;;;-144.79;100.00
19827;BME280;10074;52.018;4.726;2023-04-29T05:01:36;46229.28;;;-144.79;100.00
19827;BME280;10074;52.018;4.726;2023-04-29T05:06:37;46231.28;;;-144.79;100.00
19827;BME280;10074;52.018;4.726;2023-04-29T05:11:37;46233.28;;;-144.79;100.00
19827;BME280;10074;52.018;4.726;2023-04-29T05:16:37;46235.28;;;-144.79;100.00
19827;BME280;10074;52.018;4.726;2023-04-29T05:21:37;46235.28;;;-144.79;100.00
19827;BME280;10074;52.018;4.726;2023-04-29T05:26:38;46231.28;;;-144.79;100.00
19827;BME280;10074;52.018;4.726;2023-04-29T05:31:38;46231.28;;;-144.79;100.00
19827;BME280;10074;52.018;4.726;2023-04-29T05:36:39;46235.28;;;-144.79;100.00
19827;BME280;10074;52.018;4.726;2023-04-29T05:41:39;46231.28;;;-144.79;100.00
19827;BME280;10074;52.018;4.726;2023-04-29T05:46:39;46231.28;;;-144.79;100.00
19827;BME280;10074;52.018;4.726;2023-04-29T05:51:40;46227.28;;;-144.79;100.00
19827;BME280;10074;52.018;4.726;2023-04-29T05:56:40;46237.31;;;-144.79;100.00
19827;BME280;10074;52.018;4.726;2023-04-29T06:01:40;46225.28;;;-144.79;100.00
19827;BME280;10074;52.018;4.726;2023-04-29T06:06:41;46221.25;;;-144.79;100.00
19827;BME280;10074;52.018;4.726;2023-04-29T06:11:42;46237.31;;;-144.79;100.00
19827;BME280;10074;52.018;4.726;2023-04-29T06:16:44;46219.25;;;-144.79;100.00
19827;BME280;10074;52.018;4.726;2023-04-29T06:21:44;46219.25;;;-144.79;100.00
19827;BME280;10074;52.018;4.726;2023-04-29T06:26:44;46213.25;;;-144.79;100.00
19827;BME280;10074;52.018;4.726;2023-04-29T06:31:44;46213.25;;;-144.79;100.00
19827;BME280;10074;52.018;4.726;2023-04-29T06:36:45;46213.25;;;-144.79;100.00
19827;BME280;10074;52.018;4.726;2023-04-29T06:41:45;46219.25;;;-144.79;100.00
19827;BME280;10074;52.018;4.726;2023-04-29T06:46:45;46229.28;;;-144.79;100.00
19827;BME280;10074;52.018;4.726;2023-04-29T06:51:46;46203.22;;;-144.79;100.00
19827;BME280;10074;52.018;4.726;2023-04-29T06:56:46;46217.25;;;-144.79;100.00
19827;BME280;10074;52.018;4.726;2023-04-29T07:01:47;46229.28;;;-144.79;100.00
19827;BME280;10074;52.018;4.726;2023-04-29T07:06:47;46231.28;;;-144.79;100.00
19827;BME280;10074;52.018;4.726;2023-04-29T07:11:48;46211.22;;;-144.79;100.00
19827;BME280;10074;52.018;4.726;2023-04-29T07:16:52;46219.25;;;-144.79;100.00
19827;BME280;10074;52.018;4.726;2023-04-29T07:21:53;46223.25;;;-144.79;100.00
19827;BME280;10074;52.018;4.726;2023-04-29T07:26:53;46219.25;;;-144.79;100.00
19827;BME280;10074;52.018;4.726;2023-04-29T07:31:53;46209.22;;;-144.79;100.00
19827;BME280;10074;52.018;4.726;2023-04-29T07:36:53;46221.25;;;-144.79;100.00
19827;BME280;10074;52.018;4.726;2023-04-29T07:41:55;46233.28;;;-144.79;100.00
19827;BME280;10074;52.018;4.726;2023-04-29T07:46:55;46223.25;;;-144.79;100.00
19827;BME280;10074;52.018;4.726;2023-04-29T07:51:55;46217.25;;;-144.79;100.00
19827;BME280;10074;52.018;4.726;2023-04-29T07:56:59;46219.25;;;-144.79;100.00
19827;BME280;10074;52.018;4.726;2023-04-29T08:02:00;46223.25;;;-144.79;100.00
19827;BME280;10074;52.018;4.726;2023-04-29T08:07:03;46225.28;;;-144.79;100.00
19827;BME280;10074;52.018;4.726;2023-04-29T08:12:04;46231.28;;;-144.79;100.00
19827;BME280;10074;52.018;4.726;2023-04-29T08:17:04;46225.28;;;-144.79;100.00
19827;BME280;10074;52.018;4.726;2023-04-29T08:22:04;46239.31;;;-144.79;100.00
19827;BME280;10074;52.018;4.726;2023-04-29T08:27:05;46219.25;;;-144.79;100.00
19827;BME280;10074;52.018;4.726;2023-04-29T08:32:05;46223.25;;;-144.79;100.00
19827;BME280;10074;52.018;4.726;2023-04-29T08:37:06;46227.28;;;-144.79;100.00
19827;BME280;10074;52.018;4.726;2023-04-29T08:42:08;46229.28;;;-144.79;100.00
19827;BME280;10074;52.018;4.726;2023-04-29T08:47:08;46209.22;;;-144.79;100.00
19827;BME280;10074;52.018;4.726;2023-04-29T08:52:09;46223.25;;;-144.79;100.00
19827;BME280;10074;52.018;4.726;2023-04-29T08:57:10;46215.25;;;-144.79;100.00
19827;BME280;10074;52.018;4.726;2023-04-29T09:02:14;46215.25;;;-144.79;100.00
19827;BME280;10074;52.018;4.726;2023-04-29T09:07:17;46219.25;;;-144.79;100.00
19827;BME280;10074;52.018;4.726;2023-04-29T09:12:17;46221.25;;;-144.79;100.00
19827;BME280;10074;52.018;4.726;2023-04-29T09:17:17;46231.28;;;-144.79;100.00
19827;BME280;10074;52.018;4.726;2023-04-29T09:22:18;46217.25;;;-144.79;100.00
19827;BME280;10074;52.018;4.726;2023-04-29T09:27:27;46211.22;;;-144.79;100.00
19827;BME280;10074;52.018;4.726;2023-04-29T09:32:28;46211.22;;;-144.79;100.00
19827;BME280;10074;52.018;4.726;2023-04-29T09:37:28;46209.22;;;-144.79;100.00
19827;BME280;10074;52.018;4.726;2023-04-29T09:42:32;46201.22;;;-144.79;100.00
19827;BME280;10074;52.018;4.726;2023-04-29T09:47:41;46213.25;;;-144.79;100.00
19827;BME280;10074;52.018;4.726;2023-04-29T09:52:41;46211.22;;;-144.79;100.00
19827;BME280;10074;52.018;4.726;2023-04-29T09:57:41;46191.19;;;-144.79;100.00
19827;BME280;10074;52.018;4.726;2023-04-29T10:02:45;46195.19;;;-144.79;100.00
19827;BME280;10074;52.018;4.726;2023-04-29T10:07:55;46211.22;;;-144.79;100.00
19827;BME280;10074;52.018;4.726;2023-04-29T10:12:59;46197.19;;;-144.79;100.00
19827;BME280;10074;52.018;4.726;2023-04-29T10:23:06;46173.13;;;-144.79;100.00
19827;BME280;10074;52.018;4.726;2023-04-29T10:28:08;46199.19;;;-144.79;100.00
19827;BME280;10074;52.018;4.726;2023-04-29T10:33:15;46207.22;;;-144.79;100.00
19827;BME280;10074;52.018;4.726;2023-04-29T10:38:28;46199.19;;;-144.79;100.00
19827;BME280;10074;52.018;4.726;2023-04-29T10:43:30;46181.16;;;-144.79;100.00
19827;BME280;10074;52.018;4.726;2023-04-29T10:48:31;46201.22;;;-144.79;100.00
19827;BME280;10074;52.018;4.726;2023-04-29T10:53:31;46167.13;;;-144.79;100.00
19827;BME280;10074;52.018;4.726;2023-04-29T10:58:36;46175.16;;;-144.79;100.00
19827;BME280;10074;52.018;4.726;2023-04-29T11:03:48;46187.19;;;-144.79;100.00
19827;BME280;10074;52.018;4.726;2023-04-29T11:08:58;46187.19;;;-144.79;100.00
19827;BME280;10074;52.018;4.726;2023-04-29T11:14:01;46183.16;;;-144.79;100.00
19827;BME280;10074;52.018;4.726;2023-04-29T11:19:06;46199.19;;;-144.79;100.00
19827;BME280;10074;52.018;4.726;2023-04-29T11:24:07;46181.16;;;-144.79;100.00
19827;BME280;10074;52.018;4.726;2023-04-29T11:29:07;46175.16;;;-144.79;100.00
19827;BME280;10074;52.018;4.726;2023-04-29T11:34:10;46193.19;;;-144.79;100.00
19827;BME280;10074;52.018;4.726;2023-04-29T11:39:10;46177.16;;;-144.79;100.00
19827;BME280;10074;52.018;4.726;2023-04-29T11:44:11;46197.19;;;-144.79;100.00
19827;BME280;10074;52.018;4.726;2023-04-29T11:49:11;46179.16;;;-144.79;100.00
19827;BME280;10074;52.018;4.726;2023-04-29T11:54:11;46181.16;;;-144.79;100.00
19827;BME280;10074;52.018;4.726;2023-04-29T11:59:12;46181.16;;;-144.79;100.00
19827;BME280;10074;52.018;4.726;2023-04-29T12:04:12;46181.16;;;-144.79;100.00
19827;BME280;10074;52.018;4.726;2023-04-29T12:09:12;46183.16;;;-144.79;100.00
19827;BME280;10074;52.018;4.726;2023-04-29T12:14:15;46165.13;;;-144.79;100.00
19827;BME280;10074;52.018;4.726;2023-04-29T12:19:15;46183.16;;;-144.79;100.00
19827;BME280;10074;52.018;4.726;2023-04-29T12:24:16;46171.13;;;-144.79;100.00
19827;BME280;10074;52.018;4.726;2023-04-29T12:29:20;46163.13;;;-144.79;100.00
19827;BME280;10074;52.018;4.726;2023-04-29T12:34:26;46173.13;;;-144.79;100.00
19827;BME280;10074;52.018;4.726;2023-04-29T12:39:29;46165.13;;;-144.79;100.00
19827;BME280;10074;52.018;4.726;2023-04-29T12:44:36;46159.09;;;-144.79;100.00
19827;BME280;10074;52.018;4.726;2023-04-29T12:49:44;46167.13;;;-144.79;100.00
19827;BME280;10074;52.018;4.726;2023-04-29T12:54:45;46157.09;;;-144.79;100.00
19827;BME280;10074;52.018;4.726;2023-04-29T12:59:45;46175.16;;;-144.79;100.00
19827;BME280;10074;52.018;4.726;2023-04-29T13:04:46;46171.13;;;-144.79;100.00
19827;BME280;10074;52.018;4.726;2023-04-29T13:09:46;46159.09;;;-144.79;100.00
19827;BME280;10074;52.018;4.726;2023-04-29T13:14:46;46157.09;;;-144.79;100.00
19827;BME280;10074;52.018;4.726;2023-04-29T13:19:46;46165.13;;;-144.79;100.00
19827;BME280;10074;52.018;4.726;2023-04-29T13:24:47;46167.13;;;-144.79;100.00
19827;BME280;10074;52.018;4.726;2023-04-29T13:29:47;46155.09;;;-144.79;100.00
19827;BME280;10074;52.018;4.726;2023-04-29T13:34:49;46177.16;;;-144.79;100.00
19827;BME280;10074;52.018;4.726;2023-04-29T13:39:49;46195.19;;;-144.79;100.00
19827;BME280;10074;52.018;4.726;2023-04-29T13:44:49;46173.13;;;-144.79;100.00
19827;BME280;10074;52.018;4.726;2023-04-29T13:49:50;46177.16;;;-144.79;100.00
19827;BME280;10074;52.018;4.726;2023-04-29T13:54:51;46167.13;;;-144.79;100.00
19827;BME280;10074;52.018;4.726;2023-04-29T13:59:51;46203.22;;;-144.79;100.00
19827;BME280;10074;52.018;4.726;2023-04-29T14:04:52;46173.13;;;-144.79;100.00
19827;BME280;10074;52.018;4.726;2023-04-29T14:09:52;46173.13;;;-144.79;100.00
19827;BME280;10074;52.018;4.726;2023-04-29T14:14:52;46197.19;;;-144.79;100.00
19827;BME280;10074;52.018;4.726;2023-04-29T14:19:53;46181.16;;;-144.79;100.00
19827;BME280;10074;52.018;4.726;2023-04-29T14:24:53;46175.16;;;-144.79;100.00
19827;BME280;10074;52.018;4.726;2023-04-29T14:29:53;46167.13;;;-144.79;100.00
19827;BME280;10074;52.018;4.726;2023-04-29T14:34:53;46171.13;;;-144.79;100.00
19827;BME280;10074;52.018;4.726;2023-04-29T14:39:54;46191.19;;;-144.79;100.00
19827;BME280;10074;52.018;4.726;2023-04-29T14:44:54;46169.13;;;-144.79;100.00
19827;BME280;10074;52.018;4.726;2023-04-29T14:49:55;46175.16;;;-144.79;100.00
19827;BME280;10074;52.018;4.726;2023-04-29T14:54:55;46195.19;;;-144.79;100.00
19827;BME280;10074;52.018;4.726;2023-04-29T14:59:56;46175.16;;;-144.79;100.00
19827;BME280;10074;52.018;4.726;2023-04-29T15:04:56;46195.19;;;-144.79;100.00
19827;BME280;10074;52.018;4.726;2023-04-29T15:09:56;46187.19;;;-144.79;100.00
19827;BME280;10074;52.018;4.726;2023-04-29T15:14:57;46181.16;;;-144.79;100.00
19827;BME280;10074;52.018;4.726;2023-04-29T15:19:57;46185.16;;;-144.79;100.00
19827;BME280;10074;52.018;4.726;2023-04-29T15:24:57;46187.19;;;-144.79;100.00
19827;BME280;10074;52.018;4.726;2023-04-29T15:29:58;46183.16;;;-144.79;100.00
19827;BME280;10074;52.018;4.726;2023-04-29T15:34:59;46195.19;;;-144.79;100.00
19827;BME280;10074;52.018;4.726;2023-04-29T15:40:00;46163.13;;;-144.79;100.00
19827;BME280;10074;52.018;4.726;2023-04-29T15:45:01;46173.13;;;-144.79;100.00
19827;BME280;10074;52.018;4.726;2023-04-29T15:50:01;46155.09;;;-144.79;100.00
19827;BME280;10074;52.018;4.726;2023-04-29T15:55:03;46167.13;;;-144.79;100.00
19827;BME280;10074;52.018;4.726;2023-04-29T16:00:04;46147.06;;;-144.79;100.00
19827;BME280;10074;52.018;4.726;2023-04-29T16:05:05;46175.16;;;-144.79;100.00
19827;BME280;10074;52.018;4.726;2023-04-29T16:10:06;46143.06;;;-144.79;100.00
19827;BME280;10074;52.018;4.726;2023-04-29T16:15:07;46155.09;;;-144.79;100.00
19827;BME280;10074;52.018;4.726;2023-04-29T16:20:07;46143.06;;;-144.79;100.00
19827;BME280;10074;52.018;4.726;2023-04-29T16:25:08;46163.13;;;-144.79;100.00
19827;BME280;10074;52.018;4.726;2023-04-29T16:30:10;46151.09;;;-144.79;100.00
19827;BME280;10074;52.018;4.726;2023-04-29T16:35:10;46133.03;;;-144.79;100.00
19827;BME280;10074;52.018;4.726;2023-04-29T16:40:12;46145.06;;;-144.79;100.00
19827;BME280;10074;52.018;4.726;2023-04-29T16:45:12;46141.06;;;-144.79;100.00
19827;BME280;10074;52.018;4.726;2023-04-29T16:50:13;46121.00;;;-144.79;100.00
19827;BME280;10074;52.018;4.726;2023-04-29T16:55:13;46147.06;;;-144.79;100.00
19827;BME280;10074;52.018;4.726;2023-04-29T17:00:14;46143.06;;;-144.79;100.00
19827;BME280;10074;52.018;4.726;2023-04-29T17:05:15;46157.09;;;-144.79;100.00
19827;BME280;10074;52.018;4.726;2023-04-29T17:10:15;46151.09;;;-144.79;100.00
19827;BME280;10074;52.018;4.726;2023-04-29T17:15:16;46141.06;;;-144.79;100.00
19827;BME280;10074;52.018;4.726;2023-04-29T17:20:16;46147.06;;;-144.79;100.00
19827;BME280;10074;52.018;4.726;2023-04-29T17:25:25;46181.16;;;-144.79;100.00
19827;BME280;10074;52.018;4.726;2023-04-29T17:30:26;46167.13;;;-144.79;100.00
19827;BME280;10074;52.018;4.726;2023-04-29T17:35:26;46215.25;;;-144.79;100.00
19827;BME280;10074;52.018;4.726;2023-04-29T17:40:26;46227.28;;;-144.79;100.00
19827;BME280;10074;52.018;4.726;2023-04-29T17:45:27;46207.22;;;-144.79;100.00
19827;BME280;10074;52.018;4.726;2023-04-29T17:50:27;46199.19;;;-144.79;100.00
19827;BME280;10074;52.018;4.726;2023-04-29T17:55:27;46247.31;;;-144.79;100.00
19827;BME280;10074;52.018;4.726;2023-04-29T18:00:28;46257.34;;;-144.79;100.00
19827;BME280;10074;52.018;4.726;2023-04-29T18:05:29;46231.28;;;-144.79;100.00
19827;BME280;10074;52.018;4.726;2023-04-29T18:10:29;46263.38;;;-144.79;100.00
19827;BME280;10074;52.018;4.726;2023-04-29T18:15:29;46257.34;;;-144.79;100.00
19827;BME280;10074;52.018;4.726;2023-04-29T18:20:30;46239.31;;;-144.79;100.00
19827;BME280;10074;52.018;4.726;2023-04-29T18:25:30;46251.34;;;-144.79;100.00
19827;BME280;10074;52.018;4.726;2023-04-29T18:30:31;46255.34;;;-144.79;100.00
19827;BME280;10074;52.018;4.726;2023-04-29T18:35:31;46223.25;;;-144.79;100.00
19827;BME280;10074;52.018;4.726;2023-04-29T18:40:32;46215.25;;;-144.79;100.00
19827;BME280;10074;52.018;4.726;2023-04-29T18:45:35;46195.19;;;-144.79;100.00
19827;BME280;10074;52.018;4.726;2023-04-29T18:50:35;46201.22;;;-144.79;100.00
19827;BME280;10074;52.018;4.726;2023-04-29T18:55:35;46181.16;;;-144.79;100.00
19827;BME280;10074;52.018;4.726;2023-04-29T19:00:35;46139.06;;;-144.79;100.00
19827;BME280;10074;52.018;4.726;2023-04-29T19:05:36;46157.09;;;-144.79;100.00
19827;BME280;10074;52.018;4.726;2023-04-29T19:10:36;46139.06;;;-144.79;100.00
19827;BME280;10074;52.018;4.726;2023-04-29T19:15:37;46169.13;;;-144.79;100.00
19827;BME280;10074;52.018;4.726;2023-04-29T19:20:37;46159.09;;;-144.79;100.00
19827;BME280;10074;52.018;4.726;2023-04-29T19:25:39;46167.13;;;-144.79;100.00
19827;BME280;10074;52.018;4.726;2023-04-29T19:30:39;46151.09;;;-144.79;100.00
19827;BME280;10074;52.018;4.726;2023-04-29T19:35:39;46149.06;;;-144.79;100.00
19827;BME280;10074;52.018;4.726;2023-04-29T19:40:40;46145.06;;;-144.79;100.00
19827;BME280;10074;52.018;4.726;2023-04-29T19:45:40;46171.13;;;-144.79;100.00
19827;BME280;10074;52.018;4.726;2023-04-29T19:50:40;46171.13;;;-144.79;100.00
19827;BME280;10074;52.018;4.726;2023-04-29T19:55:41;46131.03;;;-144.79;100.00
19827;BME280;10074;52.018;4.726;2023-04-29T20:00:41;46125.03;;;-144.79;100.00
19827;BME280;10074;52.018;4.726;2023-04-29T20:05:41;46155.09;;;-144.79;100.00
19827;BME280;10074;52.018;4.726;2023-04-29T20:10:43;46139.06;;;-144.79;100.00
19827;BME280;10074;52.018;4.726;2023-04-29T20:15:44;46143.06;;;-144.79;100.00
19827;BME280;10074;52.018;4.726;2023-04-29T20:20:46;46145.06;;;-144.79;100.00
19827;BME280;10074;52.018;4.726;2023-04-29T20:25:47;46147.06;;;-144.79;100.00
19827;BME280;10074;52.018;4.726;2023-04-29T20:30:47;46159.09;;;-144.79;100.00
19827;BME280;10074;52.018;4.726;2023-04-29T20:35:47;46159.09;;;-144.79;100.00
19827;BME280;10074;52.018;4.726;2023-04-29T20:40:51;46135.03;;;-144.79;100.00
19827;BME280;10074;52.018;4.726;2023-04-29T20:45:52;46159.09;;;-144.79;100.00
19827;BME280;10074;52.018;4.726;2023-04-29T20:50:52;46141.06;;;-144.79;100.00
19827;BME280;10074;52.018;4.726;2023-04-29T20:55:52;46131.03;;;-144.79;100.00
19827;BME280;10074;52.018;4.726;2023-04-29T21:00:53;46151.09;;;-144.79;100.00
19827;BME280;10074;52.018;4.726;2023-04-29T21:05:53;46141.06;;;-144.79;100.00
19827;BME280;10074;52.018;4.726;2023-04-29T21:10:55;46147.06;;;-144.79;100.00
19827;BME280;10074;52.018;4.726;2023-04-29T21:15:55;46157.09;;;-144.79;100.00
19827;BME280;10074;52.018;4.726;2023-04-29T21:20:55;46149.06;;;-144.79;100.00
19827;BME280;10074;52.018;4.726;2023-04-29T21:25:56;46163.13;;;-144.79;100.00
19827;BME280;10074;52.018;4.726;2023-04-29T21:30:56;46153.09;;;-144.79;100.00
19827;BME280;10074;52.018;4.726;2023-04-29T21:35:57;46157.09;;;-144.79;100.00
19827;BME280;10074;52.018;4.726;2023-04-29T21:40:59;46135.03;;;-144.79;100.00
19827;BME280;10074;52.018;4.726;2023-04-29T21:45:59;46149.06;;;-144.79;100.00
19827;BME280;10074;52.018;4.726;2023-04-29T21:51:00;46141.06;;;-144.79;100.00
19827;BME280;10074;52.018;4.726;2023-04-29T21:56:04;46143.06;;;-144.79;100.00
19827;BME280;10074;52.018;4.726;2023-04-29T22:01:05;46139.06;;;-144.79;100.00
19827;BME280;10074;52.018;4.726;2023-04-29T22:06:25;46147.06;;;-144.79;100.00
19827;BME280;10074;52.018;4.726;2023-04-29T22:11:25;46167.13;;;-144.79;100.00
19827;BME280;10074;52.018;4.726;2023-04-29T22:16:26;46159.09;;;-144.79;100.00
19827;BME280;10074;52.018;4.726;2023-04-29T22:21:26;46143.06;;;-144.79;100.00
19827;BME280;10074;52.018;4.726;2023-04-29T22:26:30;46161.09;;;-144.79;100.00
19827;BME280;10074;52.018;4.726;2023-04-29T22:31:31;46143.06;;;-144.79;100.00
19827;BME280;10074;52.018;4.726;2023-04-29T22:36:31;46155.09;;;-144.79;100.00
19827;BME280;10074;52.018;4.726;2023-04-29T22:41:32;46163.13;;;-144.79;100.00
19827;BME280;10074;52.018;4.726;2023-04-29T22:46:32;46181.16;;;-144.79;100.00
19827;BME280;10074;52.018;4.726;2023-04-29T22:51:32;46173.13;;;-144.79;100.00
19827;BME280;10074;52.018;4.726;2023-04-29T22:56:33;46149.06;;;-144.79;100.00
19827;BME280;10074;52.018;4.726;2023-04-29T23:01:33;46145.06;;;-144.79;100.00
19827;BME280;10074;52.018;4.726;2023-04-29T23:06:33;46159.09;;;-144.79;100.00
19827;BME280;10074;52.018;4.726;2023-04-29T23:11:34;46151.09;;;-144.79;100.00
19827;BME280;10074;52.018;4.726;2023-04-29T23:16:34;46175.16;;;-144.79;100.00
19827;BME280;10074;52.018;4.726;2023-04-29T23:21:34;46167.13;;;-144.79;100.00
19827;BME280;10074;52.018;4.726;2023-04-29T23:26:35;46155.09;;;-144.79;100.00
19827;BME280;10074;52.018;4.726;2023-04-29T23:31:35;46145.06;;;-144.79;100.00
19827;BME280;10074;52.018;4.726;2023-04-29T23:36:35;46173.13;;;-144.79;100.00
19827;BME280;10074;52.018;4.726;2023-04-29T23:41:35;46167.13;;;-144.79;100.00
19827;BME280;10074;52.018;4.726;2023-04-29T23:46:36;46185.16;;;-144.79;100.00
19827;BME280;10074;52.018;4.726;2023-04-29T23:51:36;46183.16;;;-144.79;100.00
19827;BME280;10074;52.018;4.726;2023-04-29T23:56:36;46177.16;;;-144.79;100.00
